Terminal Aerodrome Forecast
Issued by NWS

Home | Current Version | Previous Version | Text Only | Print | Product List | Glossary On
Versions: 1 2 3 4 5 6 7 8 9 10 11 12 13 14 15 16 17 18 19 20 21 22 23 24 25 26 27 28 29 30 31 32 33 34 35 36 37 38 39
000
FTUS43 KICT 241237 AAA
TAFCNU
TAF AMD
KCNU 241237Z 2413/2512 24005KT 1SM BR OVC003
      TEMPO 2413/2415 3SM BR
     FM241500 26007KT 4SM BR OVC005
     FM241600 25007KT P6SM OVC013
     FM241700 28009KT P6SM BKN025
     FM241900 28013KT P6SM SKC=

USA.gov is the U.S. government's official web portal to all federal, state and local government web resources and services.